• Join FlightAware (Why Join?)
  • Login
  • US Flag 
08:33AM EST


 

Airport Tracker/Info


-or-


 

Live Flight TrackerFlight Track Log ✈ QLK108D ✈ 10-Oct-2013 ✈ YSSY / SYD - YCFS

Flight Track Log - Related Links

Times and Time Zones

All times are in EDT time to prevent confusion due to time zone crossing. See the QLK108D flight status page for this flight to view local times or setup timezone preferences in your user account.

Time Position Orientation Groundspeed Altitude Reporting Facility
EDT Latitude Longitude Course Direction KTS MPH feet Rate Location/Type
08:47PM -33.9470 151.1878 North 123 142 700  Level Aus ATC (RADAR)
08:48PM -33.9129 151.1894 North 165 190 1,900 1,620 Climbing Aus ATC (RADAR)
08:48PM -33.8917 151.1897 North 180 207 2,700 1,560 Climbing Aus ATC (RADAR)
08:50PM -33.8312 151.2142 19° North 233 268 4,300 1,500 Climbing Aus ATC (RADAR)
08:50PM -33.8020 151.2352 31° Northeast 244 281 5,100 1,620 Climbing Aus ATC (RADAR)
08:50PM -33.7768 151.2505 27° Northeast 245 282 5,800 1,680 Climbing Aus ATC (RADAR)
08:51PM -33.7382 151.2760 29° Northeast 244 281 6,900 1,680 Climbing Aus ATC (RADAR)
08:52PM -33.7007 151.3003 28° Northeast 252 290 7,900 1,560 Climbing Aus ATC (RADAR)
08:52PM -33.6641 151.3241 28° Northeast 257 296 8,800 1,620 Climbing Aus ATC (RADAR)
08:53PM -33.6125 151.3573 28° Northeast 259 298 10,200 1,740 Climbing Aus ATC (RADAR)
08:54PM -33.5839 151.3752 28° Northeast 265 305 11,000 1,620 Climbing Aus ATC (RADAR)
08:55PM -33.5204 151.4162 28° Northeast 263 303 12,500 1,260 Climbing Aus ATC (RADAR)
08:55PM -33.4910 151.4348 28° Northeast 271 312 12,800 600 Climbing Aus ATC (RADAR)
08:55PM -33.4574 151.4552 27° Northeast 281 323 13,100 1,080 Climbing Aus ATC (RADAR)
08:56PM -33.4135 151.4795 25° Northeast 287 330 14,000 1,620 Climbing Aus ATC (RADAR)
08:57PM -33.3610 151.5095 26° Northeast 288 331 15,300 1,680 Climbing Aus ATC (RADAR)
08:57PM -33.3168 151.5345 25° Northeast 292 336 16,300 1,500 Climbing Aus ATC (RADAR)
08:58PM -33.2635 151.5652 26° Northeast 282 325 17,400 1,260 Climbing Aus ATC (RADAR)
08:59PM -33.2347 151.5824 26° Northeast 279 321 17,800 840 Climbing Aus ATC (RADAR)
09:00PM -33.1416 151.6349 25° Northeast 283 326 18,900 840 Climbing Aus ATC (RADAR)
09:01PM -33.0920 151.6632 26° Northeast 287 330 19,500 900 Climbing Aus ATC (RADAR)
09:01PM -33.0737 151.6739 26° Northeast 290 334 19,800 840 Climbing Aus ATC (RADAR)
09:01PM -33.0320 151.6978 26° Northeast 292 336 20,200 720 Climbing Aus ATC (RADAR)
09:02PM -32.9705 151.7334 26° Northeast 297 342 20,800 420 Climbing Aus ATC (RADAR)
09:03PM -32.9252 151.7596 26° Northeast 310 357 20,800  Level Aus ATC (RADAR)
09:04PM -32.8568 151.7989 26° Northeast 329 379 20,800  Level Aus ATC (RADAR)
09:04PM -32.8116 151.8234 24° Northeast 338 389 20,800  Level Aus ATC (RADAR)
09:06PM -32.6712 151.9028 25° Northeast 354 407 20,800  Level Aus ATC (RADAR)
09:07PM -32.5589 151.9656 25° Northeast 355 409 20,800  Level Aus ATC (RADAR)
09:08PM -32.5067 151.9955 26° Northeast 355 409 20,800  Level Aus ATC (RADAR)
09:08PM -32.4321 152.0370 25° Northeast 354 407 20,800  Level Aus ATC (RADAR)
09:09PM -32.3872 152.0618 25° Northeast 353 406 20,800  Level Aus ATC (RADAR)
09:10PM -32.3120 152.1033 25° Northeast 356 410 20,800  Level Aus ATC (RADAR)
09:10PM -32.2820 152.1201 25° Northeast 355 409 20,800  Level Aus ATC (RADAR)
09:11PM -32.1535 152.1910 25° Northeast 356 410 20,800  Level Aus ATC (RADAR)
09:12PM -32.0936 152.2247 25° Northeast 355 409 20,800  Level Aus ATC (RADAR)
09:13PM -32.0182 152.2658 25° Northeast 355 409 20,800  Level Aus ATC (RADAR)
09:13PM -31.9878 152.2823 25° Northeast 357 411 20,800  Level Aus ATC (RADAR)
09:14PM -31.9420 152.3049 23° Northeast 354 407 20,800 120 Level Aus ATC (RADAR)
09:15PM -31.8588 152.3437 22° Northeast 358 412 21,000 60 Climbing Aus ATC (RADAR)
09:16PM -31.7667 152.3887 23° Northeast 358 412 21,000  Level Aus ATC (RADAR)
09:17PM -31.6808 152.4308 23° Northeast 356 410 21,100 60 Climbing Aus ATC (RADAR)
09:17PM -31.6424 152.4485 21° North 354 407 21,100 -360 Level Aus ATC (RADAR)
09:18PM -31.5657 152.4853 22° Northeast 354 407 20,700 -960 Descending Aus ATC (RADAR)
09:19PM -31.5034 152.5157 23° Northeast 358 412 19,700 -1,560 Descending Aus ATC (RADAR)
09:20PM -31.3938 152.5669 22° Northeast 356 410 17,900 -1,500 Descending Aus ATC (RADAR)
09:21PM -31.2738 152.6236 22° Northeast 353 406 16,000 -1,560 Descending Aus ATC (RADAR)
09:21PM -31.2495 152.6353 22° Northeast 347 399 15,500 -1,560 Descending Aus ATC (RADAR)
09:22PM -31.1915 152.6638 23° Northeast 347 399 14,600 -1,440 Descending Aus ATC (RADAR)
09:23PM -31.1254 152.6951 22° Northeast 342 394 13,600 -1,500 Descending Aus ATC (RADAR)
09:23PM -31.0743 152.7194 22° Northeast 341 392 12,700 -1,440 Descending Aus ATC (RADAR)
09:24PM -31.0099 152.7504 22° Northeast 337 388 11,700 -1,320 Descending Aus ATC (RADAR)
09:24PM -30.9737 152.7673 22° Northeast 321 369 11,100 -1,380 Descending Aus ATC (RADAR)
09:26PM -30.8857 152.8093 22° Northeast 291 335 9,600 -1,200 Descending Aus ATC (RADAR)
09:26PM -30.8541 152.8229 20° North 276 318 9,200 -1,080 Descending Aus ATC (RADAR)
09:26PM -30.8319 152.8330 21° North 277 319 8,800 -1,260 Descending Aus ATC (RADAR)
09:27PM -30.8071 152.8444 22° Northeast 268 308 8,400 -1,200 Descending Aus ATC (RADAR)
09:27PM -30.7607 152.8665 22° Northeast 266 306 7,600 -1,140 Descending Aus ATC (RADAR)
09:29PM -30.6363 152.9247 22° Northeast 258 297 5,600 -1,140 Descending Aus ATC (RADAR)
09:30PM -30.6090 152.9377 22° Northeast 267 307 5,200 -1,080 Descending Aus ATC (RADAR)
09:31PM -30.5027 152.9884 22° Northeast 217 250 3,400 -1,020 Descending Aus ATC (RADAR)
09:32PM -30.4591 153.0077 21° North 213 245 2,700 -900 Descending Aus ATC (RADAR)
09:32PM -30.4394 153.0181 25° Northeast 208 239 2,400 -840 Descending Aus ATC (RADAR)
09:33PM -30.4257 153.0288 34° Northeast 207 238 2,000 -840 Descending Aus ATC (RADAR)
09:34PM -30.3790 153.0637 33° Northeast 164 189 1,100 -900 Descending Aus ATC (RADAR)
09:34PM -30.3747 153.0695 49° Northeast 147 169 900 -1,020 Descending Aus ATC (RADAR)